createdAt,value
2018-08-24T00:01:24.501Z,1.10
2018-08-24T00:03:53.751Z,0.80
2018-08-24T00:06:23.115Z,1.00
2018-08-24T00:08:52.394Z,1.10
2018-08-24T00:11:22.310Z,1.05
2018-08-24T00:13:51.347Z,1.02
2018-08-24T00:16:26.038Z,0.80
2018-08-24T00:18:54.968Z,0.85
2018-08-24T00:21:24.060Z,1.00
2018-08-24T00:23:53.285Z,0.85
2018-08-24T00:26:22.146Z,0.93
2018-08-24T00:28:51.151Z,0.80
2018-08-24T00:31:20.475Z,0.80
2018-08-24T00:33:53.542Z,0.70
2018-08-24T00:36:25.624Z,0.93
2018-08-24T00:38:54.602Z,0.98
2018-08-24T00:41:24.298Z,0.90
2018-08-24T00:43:53.775Z,0.60
2018-08-24T00:46:23.351Z,0.70
2018-08-24T00:48:52.591Z,0.90
2018-08-24T00:51:21.991Z,0.90
2018-08-24T00:53:51.734Z,0.90
2018-08-24T00:56:21.516Z,0.60
2018-08-24T00:58:51.299Z,0.80
2018-08-24T01:01:20.159Z,1.00
2018-08-24T01:03:49.969Z,1.67
2018-08-24T01:06:23.583Z,2.75
2018-08-24T01:08:52.361Z,2.52
2018-08-24T01:11:25.474Z,1.37
2018-08-24T01:13:54.435Z,1.45
2018-08-24T01:16:28.815Z,1.20
2018-08-24T01:18:57.658Z,1.20
2018-08-24T01:21:26.767Z,0.98
2018-08-24T01:23:56.511Z,0.95
2018-08-24T01:26:25.959Z,0.90
2018-08-24T01:28:55.283Z,0.80
2018-08-24T01:31:24.618Z,0.80
2018-08-24T01:33:53.413Z,0.60
2018-08-24T01:36:23.383Z,0.80
2018-08-24T01:38:53.012Z,0.70
2018-08-24T01:41:21.969Z,0.70
2018-08-24T01:43:50.878Z,0.60
2018-08-24T01:46:20.126Z,0.80
2018-08-24T01:48:49.390Z,0.60
2018-08-24T01:51:18.367Z,0.60
2018-08-24T01:53:48.732Z,0.65
2018-08-24T01:56:17.606Z,0.57
2018-08-24T01:58:46.754Z,0.72
2018-08-24T02:01:16.271Z,0.60
2018-08-24T02:03:45.430Z,0.70
2018-08-24T02:06:14.386Z,0.57
2018-08-24T02:08:43.815Z,0.60
2018-08-24T02:11:18.175Z,0.57
2018-08-24T02:13:52.348Z,0.80
2018-08-24T02:16:21.727Z,0.70
2018-08-24T02:18:56.157Z,0.75
2018-08-24T02:21:30.178Z,0.50
2018-08-24T02:23:58.879Z,0.60
2018-08-24T02:26:27.939Z,0.60
2018-08-24T02:28:56.767Z,0.60
2018-08-24T02:31:26.170Z,0.70
2018-08-24T02:33:55.035Z,0.80
2018-08-24T02:36:25.064Z,0.60
2018-08-24T02:38:54.074Z,0.60
2018-08-24T02:41:23.151Z,0.95
2018-08-24T02:43:52.434Z,0.60
2018-08-24T02:46:21.797Z,0.57
2018-08-24T02:48:51.347Z,0.75
2018-08-24T02:51:20.377Z,0.50
2018-08-24T02:53:49.583Z,0.80
2018-08-24T02:56:18.832Z,0.60
2018-08-24T02:58:47.953Z,0.60
2018-08-24T03:01:17.722Z,0.60
2018-08-24T03:03:47.251Z,0.85
2018-08-24T03:06:16.423Z,0.80
2018-08-24T03:08:45.496Z,0.70
2018-08-24T03:11:14.447Z,0.60
2018-08-24T03:13:43.635Z,0.60
2018-08-24T03:16:13.654Z,0.70
2018-08-24T03:18:42.915Z,0.70
2018-08-24T03:21:11.595Z,0.80
2018-08-24T03:23:40.670Z,0.75
2018-08-24T03:26:09.875Z,0.72
2018-08-24T03:28:39.183Z,0.60
2018-08-24T03:31:08.469Z,0.70
2018-08-24T03:33:37.444Z,0.88
2018-08-24T03:36:06.663Z,1.00
2018-08-24T03:38:35.911Z,0.70
2018-08-24T03:41:05.703Z,0.78
2018-08-24T03:43:35.162Z,0.60
2018-08-24T03:46:04.639Z,0.90
2018-08-24T03:48:33.798Z,0.90
2018-08-24T03:51:02.983Z,1.00
2018-08-24T03:53:48.527Z,1.05
2018-08-24T03:56:22.394Z,0.90
2018-08-24T03:58:57.562Z,0.72
2018-08-24T04:01:27.835Z,1.07
2018-08-24T04:04:01.622Z,0.88
2018-08-24T04:06:38.764Z,0.78
2018-08-24T04:09:08.674Z,0.85
2018-08-24T04:11:37.892Z,0.80
2018-08-24T04:14:07.146Z,0.80
2018-08-24T04:16:41.661Z,0.75
2018-08-24T04:19:18.246Z,0.70
2018-08-24T04:21:47.950Z,0.80
2018-08-24T04:24:18.028Z,0.90
2018-08-24T04:26:47.264Z,0.98
2018-08-24T04:29:18.655Z,0.90
2018-08-24T04:31:47.800Z,0.98
2018-08-24T04:34:16.982Z,0.90
2018-08-24T04:36:46.533Z,0.70
2018-08-24T04:39:15.569Z,0.95
2018-08-24T04:41:45.092Z,0.80
2018-08-24T04:44:14.495Z,1.05
2018-08-24T04:46:43.675Z,0.90
2018-08-24T04:49:12.373Z,0.70
2018-08-24T04:51:41.683Z,0.88
2018-08-24T04:54:11.230Z,1.05
2018-08-24T04:56:40.775Z,1.00
2018-08-24T04:59:10.014Z,0.80
2018-08-24T05:01:39.150Z,0.90
2018-08-24T05:04:08.063Z,1.20
2018-08-24T05:06:37.189Z,0.90
2018-08-24T05:09:09.621Z,0.90
2018-08-24T05:11:39.742Z,0.95
2018-08-24T05:14:09.225Z,1.25
2018-08-24T05:16:38.161Z,0.78
2018-08-24T05:19:11.713Z,0.90
2018-08-24T05:21:40.861Z,1.20
2018-08-24T05:24:09.886Z,0.85
2018-08-24T05:26:40.416Z,0.70
2018-08-24T05:29:09.490Z,0.93
2018-08-24T05:31:39.007Z,0.93
2018-08-24T05:34:08.530Z,1.15
2018-08-24T05:36:38.110Z,0.62
2018-08-24T05:39:09.120Z,0.55
2018-08-24T05:41:38.831Z,1.07
2018-08-24T05:44:07.962Z,0.60
2018-08-24T05:46:37.898Z,0.60
2018-08-24T05:49:06.810Z,0.70
2018-08-24T05:51:35.879Z,0.65
2018-08-24T05:54:04.769Z,0.75
2018-08-24T05:56:34.409Z,0.80
2018-08-24T05:59:04.369Z,0.75
2018-08-24T06:01:34.374Z,1.00
2018-08-24T06:04:03.836Z,1.00
2018-08-24T06:06:32.704Z,0.80
2018-08-24T06:09:07.599Z,0.78
2018-08-24T06:11:36.631Z,0.70
2018-08-24T06:14:05.638Z,0.93
2018-08-24T06:16:34.877Z,0.95
2018-08-24T06:19:03.712Z,0.88
2018-08-24T06:21:32.602Z,0.88
2018-08-24T06:24:01.892Z,0.90
2018-08-24T06:26:48.371Z,0.82
2018-08-24T06:29:24.745Z,0.80
2018-08-24T06:31:56.592Z,0.85
2018-08-24T06:34:29.289Z,0.70
2018-08-24T06:37:08.708Z,1.00
2018-08-24T06:39:41.301Z,0.80
2018-08-24T06:42:19.763Z,0.90
2018-08-24T06:44:53.198Z,0.93
2018-08-24T06:47:25.108Z,0.90
2018-08-24T06:49:55.089Z,0.70
2018-08-24T06:52:36.353Z,1.07
2018-08-24T06:55:08.116Z,0.90
2018-08-24T06:57:37.643Z,0.85
2018-08-24T07:00:08.098Z,0.70
2018-08-24T07:02:39.173Z,1.00
2018-08-24T07:05:10.245Z,0.80
2018-08-24T07:07:42.904Z,1.30
2018-08-24T07:10:15.615Z,0.90
2018-08-24T07:12:45.320Z,0.93
2018-08-24T07:15:16.447Z,0.80
2018-08-24T07:23:39.309Z,0.82
2018-08-24T07:26:08.303Z,0.50
2018-08-24T07:28:37.171Z,0.70
2018-08-24T07:31:06.555Z,0.75
2018-08-24T07:33:36.436Z,1.25
2018-08-24T07:36:05.462Z,0.98
2018-08-24T07:38:35.039Z,1.42
2018-08-24T07:41:04.207Z,1.17
2018-08-24T07:43:33.311Z,1.20
2018-08-24T07:46:02.363Z,0.95
2018-08-24T07:48:31.307Z,1.10
2018-08-24T07:51:00.292Z,1.32
2018-08-24T07:53:29.836Z,1.07
2018-08-24T07:55:58.904Z,0.93
2018-08-24T07:58:27.656Z,1.52
2018-08-24T08:00:56.611Z,1.37
2018-08-24T08:03:25.793Z,1.20
2018-08-24T08:05:55.119Z,1.27
2018-08-24T08:08:24.207Z,1.27
2018-08-24T08:10:53.128Z,1.20
2018-08-24T08:13:21.945Z,1.10
2018-08-24T08:15:51.742Z,1.05
2018-08-24T08:18:20.748Z,1.50
2018-08-24T08:20:49.672Z,1.30
2018-08-24T08:23:18.779Z,1.25
2018-08-24T08:25:47.866Z,1.05
2018-08-24T08:28:17.159Z,1.42
2018-08-24T08:30:46.688Z,1.42
2018-08-24T08:33:15.768Z,1.80
2018-08-24T08:35:45.095Z,1.55
2018-08-24T08:38:17.605Z,1.50
2018-08-24T08:40:46.724Z,1.55
2018-08-24T08:43:16.678Z,1.85
2018-08-24T08:45:45.531Z,1.67
2018-08-24T08:48:14.548Z,1.45
2018-08-24T08:50:44.066Z,1.10
2018-08-24T08:53:13.489Z,1.35
2018-08-24T08:55:42.549Z,1.82
2018-08-24T08:58:12.141Z,1.62
2018-08-24T09:00:41.347Z,1.62
2018-08-24T09:03:10.884Z,1.80
2018-08-24T09:05:40.036Z,1.90
2018-08-24T09:08:09.247Z,1.72
2018-08-24T09:10:39.325Z,1.70
2018-08-24T09:13:08.587Z,2.02
2018-08-24T09:15:38.015Z,1.75
2018-08-24T09:18:12.290Z,2.17
2018-08-24T09:20:46.443Z,2.02
2018-08-24T09:23:21.266Z,1.85
2018-08-24T09:25:55.476Z,2.10
2018-08-24T09:28:35.930Z,2.35
2018-08-24T09:31:11.283Z,2.17
2018-08-24T09:33:40.747Z,2.37
2018-08-24T09:36:15.047Z,2.90
2018-08-24T09:38:44.490Z,2.15
2018-08-24T09:41:13.603Z,2.15
2018-08-24T09:43:47.897Z,2.00
2018-08-24T09:46:16.988Z,2.60
2018-08-24T09:48:51.173Z,2.20
2018-08-24T09:51:27.490Z,2.50
2018-08-24T09:54:02.730Z,2.45
2018-08-24T09:56:32.787Z,2.05
2018-08-24T09:59:02.205Z,2.80
2018-08-24T10:02:38.974Z,5.87
2018-08-24T10:05:12.907Z,1.65
2018-08-24T10:07:45.990Z,2.80
2018-08-24T10:10:14.920Z,2.40
2018-08-24T10:12:43.840Z,2.27
2018-08-24T10:15:13.149Z,2.15
2018-08-24T10:17:42.342Z,2.47
2018-08-24T10:20:11.431Z,2.47
2018-08-24T10:22:40.831Z,2.30
2018-08-24T10:25:10.559Z,2.33
2018-08-24T10:27:39.549Z,3.15
2018-08-24T10:30:08.910Z,2.37
2018-08-24T10:32:38.039Z,2.40
2018-08-24T10:35:06.961Z,2.35
2018-08-24T10:37:36.311Z,1.87
2018-08-24T10:40:05.125Z,2.35
2018-08-24T10:42:34.284Z,2.30
2018-08-24T10:45:03.554Z,2.22
2018-08-24T10:47:32.631Z,3.20
2018-08-24T10:50:01.720Z,1.72
2018-08-24T10:52:30.894Z,3.20
2018-08-24T10:55:00.178Z,3.05
2018-08-24T10:57:29.256Z,3.15
2018-08-24T10:59:58.699Z,2.52
2018-08-24T11:02:27.600Z,2.65
2018-08-24T11:04:56.549Z,2.62
2018-08-24T11:07:25.885Z,2.33
2018-08-24T11:09:54.899Z,2.45
2018-08-24T11:12:28.839Z,2.17
2018-08-24T11:14:58.136Z,2.72
2018-08-24T11:17:32.250Z,2.40
2018-08-24T11:20:01.486Z,2.70
2018-08-24T11:22:30.615Z,2.98
2018-08-24T11:25:00.144Z,2.27
2018-08-24T11:27:29.276Z,2.35
2018-08-24T11:29:58.541Z,2.20
2018-08-24T11:32:27.844Z,2.58
2018-08-24T11:34:57.027Z,2.12
2018-08-24T11:37:26.145Z,2.67
2018-08-24T11:39:55.679Z,2.47
2018-08-24T11:42:25.046Z,2.87
2018-08-24T11:44:54.089Z,2.35
2018-08-24T11:47:23.457Z,2.45
2018-08-24T11:49:52.835Z,2.40
2018-08-24T11:52:22.658Z,2.45
2018-08-24T11:54:51.804Z,2.47
2018-08-24T11:57:21.644Z,2.80
2018-08-24T11:59:51.216Z,2.58
2018-08-24T12:02:20.723Z,2.10
2018-08-24T12:04:49.779Z,3.20
2018-08-24T12:07:18.969Z,2.92
2018-08-24T12:09:48.091Z,2.30
2018-08-24T12:12:17.282Z,2.90
2018-08-24T12:14:46.512Z,3.22
2018-08-24T12:17:21.650Z,2.50
2018-08-24T12:19:50.894Z,3.12
2018-08-24T12:22:19.597Z,2.67
2018-08-24T12:24:49.145Z,2.58
2018-08-24T12:27:18.404Z,2.60
2018-08-24T12:29:47.620Z,5.00
2018-08-24T12:32:17.727Z,2.62
2018-08-24T12:34:46.733Z,5.70
2018-08-24T12:37:15.674Z,3.20
2018-08-24T12:39:44.760Z,2.42
2018-08-24T12:42:14.123Z,2.15
2018-08-24T12:44:43.315Z,1.95
2018-08-24T12:47:13.441Z,2.40
2018-08-24T12:49:42.623Z,2.27
2018-08-24T12:52:11.831Z,1.82
2018-08-24T12:54:41.242Z,1.80
2018-08-24T12:57:10.140Z,1.90
2018-08-24T12:59:39.332Z,2.17
2018-08-24T13:02:08.464Z,2.05
2018-08-24T13:04:37.524Z,2.37
2018-08-24T13:07:06.602Z,2.02
2018-08-24T13:09:35.569Z,2.50
2018-08-24T13:12:04.415Z,2.30
2018-08-24T13:14:33.579Z,2.00
2018-08-24T13:17:03.090Z,1.95
2018-08-24T13:19:32.210Z,2.15
2018-08-24T13:22:01.419Z,2.08
2018-08-24T13:24:30.720Z,2.05
2018-08-24T13:26:59.620Z,2.35
2018-08-24T13:29:28.630Z,2.12
2018-08-24T13:31:58.231Z,1.90
2018-08-24T13:34:27.374Z,1.92
2018-08-24T13:36:56.579Z,2.12
2018-08-24T13:39:26.084Z,2.20
2018-08-24T13:41:55.232Z,2.05
2018-08-24T13:44:24.375Z,2.50
2018-08-24T13:46:53.802Z,2.80
2018-08-24T13:49:22.671Z,2.83
2018-08-24T13:51:51.691Z,2.00
2018-08-24T13:54:21.130Z,2.45
2018-08-24T13:56:50.815Z,2.33
2018-08-24T13:59:20.098Z,2.37
2018-08-24T14:01:49.770Z,2.70
2018-08-24T14:04:18.980Z,2.33
2018-08-24T14:06:48.090Z,2.65
2018-08-24T14:09:17.233Z,2.95
2018-08-24T14:11:46.227Z,2.72
2018-08-24T14:14:15.213Z,3.30
2018-08-24T14:16:44.451Z,2.70
2018-08-24T14:19:13.624Z,3.47
2018-08-24T14:21:42.814Z,3.47
2018-08-24T14:24:12.342Z,2.85
2018-08-24T14:26:41.648Z,2.95
2018-08-24T14:29:10.759Z,3.25
2018-08-24T14:31:40.507Z,2.60
2018-08-24T14:34:09.459Z,2.72
2018-08-24T14:36:38.412Z,3.37
2018-08-24T14:39:09.423Z,2.65
2018-08-24T14:41:38.484Z,3.85
2018-08-24T14:44:08.048Z,2.60
2018-08-24T14:46:37.297Z,2.10
2018-08-24T14:49:06.342Z,2.72
2018-08-24T14:51:35.547Z,3.12
2018-08-24T14:54:04.937Z,2.30
2018-08-24T14:56:33.956Z,2.83
2018-08-24T14:59:03.056Z,2.50
2018-08-24T15:01:32.359Z,2.22
2018-08-24T15:04:01.832Z,2.92
2018-08-24T15:06:30.803Z,2.45
2018-08-24T15:09:01.482Z,3.00
2018-08-24T15:11:30.696Z,2.55
2018-08-24T15:13:59.807Z,2.72
2018-08-24T15:16:29.220Z,2.60
2018-08-24T15:18:58.056Z,2.35
2018-08-24T15:21:26.972Z,3.08
2018-08-24T15:23:56.410Z,3.30
2018-08-24T15:26:25.459Z,2.50
2018-08-24T15:28:54.758Z,2.00
2018-08-24T15:31:24.208Z,2.75
2018-08-24T15:33:53.287Z,2.83
2018-08-24T15:36:22.382Z,2.52
2018-08-24T15:38:51.702Z,2.70
2018-08-24T15:44:04.543Z,3.00
2018-08-24T15:46:33.787Z,3.47
2018-08-24T15:49:02.787Z,3.37
2018-08-24T15:51:31.934Z,3.50
2018-08-24T15:54:00.980Z,3.15
2018-08-24T15:56:30.099Z,3.20
2018-08-24T15:58:59.624Z,2.80
2018-08-24T16:01:29.112Z,2.90
2018-08-24T16:03:58.766Z,2.80
2018-08-24T16:06:28.071Z,2.60
2018-08-24T16:08:57.315Z,2.72
2018-08-24T16:11:26.536Z,2.92
2018-08-24T16:13:55.822Z,2.70
2018-08-24T16:16:24.915Z,2.35
2018-08-24T16:18:54.126Z,2.67
2018-08-24T16:21:23.627Z,2.87
2018-08-24T16:23:52.818Z,2.95
2018-08-24T16:26:24.814Z,2.40
2018-08-24T16:28:54.326Z,2.60
2018-08-24T16:31:24.027Z,2.80
2018-08-24T16:33:53.552Z,3.20
2018-08-24T16:36:22.611Z,3.40
2018-08-24T16:38:51.696Z,2.92
2018-08-24T16:41:20.991Z,2.92
2018-08-24T16:43:50.416Z,2.65
2018-08-24T16:46:19.403Z,2.60
2018-08-24T16:48:48.800Z,3.17
2018-08-24T16:51:17.893Z,2.75
2018-08-24T16:53:46.995Z,2.42
2018-08-24T16:56:15.923Z,3.10
2018-08-24T16:58:45.257Z,2.05
2018-08-24T17:01:14.442Z,2.50
2018-08-24T17:03:43.817Z,2.42
2018-08-24T17:06:13.200Z,2.42
2018-08-24T17:08:42.202Z,2.67
2018-08-24T17:11:11.914Z,3.52
2018-08-24T17:13:41.095Z,3.08
2018-08-24T17:16:10.101Z,2.60
2018-08-24T17:18:39.210Z,2.98
2018-08-24T17:21:08.172Z,3.37
2018-08-24T17:23:37.171Z,3.55
2018-08-24T17:26:06.910Z,3.02
2018-08-24T17:28:36.165Z,3.20
2018-08-24T17:31:05.224Z,3.02
2018-08-24T17:33:34.718Z,3.15
2018-08-24T17:36:03.820Z,2.75
2018-08-24T17:38:32.816Z,3.08
2018-08-24T17:41:02.319Z,2.98
2018-08-24T17:43:31.389Z,3.20
2018-08-24T17:46:00.570Z,3.70
2018-08-24T17:48:29.886Z,4.05
2018-08-24T17:50:58.899Z,3.92
2018-08-24T17:53:28.194Z,3.80
2018-08-24T17:55:57.382Z,3.55
2018-08-24T17:58:26.483Z,3.55
2018-08-24T18:00:55.704Z,3.75
2018-08-24T18:03:25.084Z,4.05
2018-08-24T18:05:54.229Z,3.87
2018-08-24T18:08:23.192Z,3.58
2018-08-24T18:10:52.710Z,3.92
2018-08-24T18:13:21.996Z,3.22
2018-08-24T18:15:51.017Z,2.77
2018-08-24T18:18:20.335Z,3.22
2018-08-24T18:20:49.360Z,2.75
2018-08-24T18:23:18.900Z,2.90
2018-08-24T18:25:48.222Z,2.30
2018-08-24T18:28:17.542Z,2.87
2018-08-24T18:30:46.392Z,3.40
2018-08-24T18:33:16.572Z,3.27
2018-08-24T18:35:45.572Z,3.42
2018-08-24T18:38:14.674Z,2.60
2018-08-24T18:40:44.078Z,3.17
2018-08-24T18:43:13.687Z,2.75
2018-08-24T18:45:43.108Z,2.92
2018-08-24T18:48:12.654Z,3.10
2018-08-24T18:50:41.814Z,3.85
2018-08-24T18:53:10.804Z,3.50
2018-08-24T18:55:39.861Z,2.77
2018-08-24T18:58:09.195Z,2.67
2018-08-24T19:00:38.523Z,2.22
2018-08-24T19:03:07.947Z,2.37
2018-08-24T19:05:37.027Z,2.50
2018-08-24T19:08:09.551Z,2.27
2018-08-24T19:10:44.039Z,2.25
2018-08-24T19:13:15.361Z,2.65
2018-08-24T19:15:45.413Z,3.85
2018-08-24T19:18:19.602Z,3.67
2018-08-24T19:20:53.797Z,4.33
2018-08-24T19:23:22.850Z,3.08
2018-08-24T19:25:51.984Z,2.70
2018-08-24T19:28:26.294Z,3.27
2018-08-24T19:30:55.337Z,3.17
2018-08-24T19:33:24.404Z,3.37
2018-08-24T19:35:54.067Z,3.37
2018-08-24T19:38:23.126Z,3.58
2018-08-24T19:40:57.743Z,2.80
2018-08-24T19:43:26.736Z,2.67
2018-08-24T19:45:55.641Z,2.67
2018-08-24T19:48:30.371Z,2.58
2018-08-24T19:50:59.403Z,2.70
2018-08-24T19:53:28.636Z,2.67
2018-08-24T19:55:57.781Z,2.25
2018-08-24T19:58:31.860Z,3.20
2018-08-24T20:01:01.311Z,3.10
2018-08-24T20:03:30.366Z,2.80
2018-08-24T20:06:04.765Z,2.50
2018-08-24T20:08:38.937Z,2.60
2018-08-24T20:11:08.315Z,3.42
2018-08-24T20:13:37.368Z,2.55
2018-08-24T20:16:11.830Z,2.02
2018-08-24T20:18:40.941Z,2.47
2018-08-24T20:21:09.759Z,2.33
2018-08-24T20:23:39.077Z,2.00
2018-08-24T20:26:08.428Z,2.15
2018-08-24T20:28:37.396Z,2.70
2018-08-24T20:31:06.771Z,2.37
2018-08-24T20:33:35.737Z,2.60
2018-08-24T20:36:04.842Z,2.80
2018-08-24T20:38:34.344Z,2.55
2018-08-24T20:41:03.366Z,2.60
2018-08-24T20:43:32.390Z,2.40
2018-08-24T20:46:01.998Z,2.85
2018-08-24T20:48:30.918Z,2.58
2018-08-24T20:51:00.023Z,2.58
2018-08-24T20:53:29.327Z,2.47
2018-08-24T20:55:58.593Z,2.10
2018-08-24T20:58:27.792Z,2.08
2018-08-24T21:00:57.182Z,2.65
2018-08-24T21:03:26.404Z,2.62
2018-08-24T21:05:55.555Z,2.35
2018-08-24T21:08:24.886Z,2.45
2018-08-24T21:10:54.414Z,2.02
2018-08-24T21:13:23.432Z,2.25
2018-08-24T21:15:52.538Z,1.82
2018-08-24T21:18:21.511Z,2.47
2018-08-24T21:20:50.654Z,2.45
2018-08-24T21:23:20.556Z,1.85
2018-08-24T21:25:49.521Z,1.98
2018-08-24T21:28:18.398Z,1.98
2018-08-24T21:30:47.552Z,1.80
2018-08-24T21:33:17.016Z,1.60
2018-08-24T21:35:46.056Z,2.00
2018-08-24T21:38:15.439Z,1.80
2018-08-24T21:40:44.501Z,1.80
2018-08-24T21:43:13.723Z,2.17
2018-08-24T21:45:43.530Z,1.92
2018-08-24T21:48:12.610Z,1.62
2018-08-24T21:50:41.483Z,2.00
2018-08-24T21:53:11.278Z,1.60
2018-08-24T21:55:40.303Z,1.62
2018-08-24T21:58:09.442Z,2.87
2018-08-24T22:00:42.709Z,2.20
2018-08-24T22:03:12.992Z,1.77
2018-08-24T22:05:42.330Z,1.67
2018-08-24T22:08:11.653Z,1.95
2018-08-24T22:10:40.434Z,1.77
2018-08-24T22:13:10.010Z,1.62
2018-08-24T22:15:39.590Z,1.70
2018-08-24T22:18:09.144Z,1.60
2018-08-24T22:20:38.152Z,1.80
2018-08-24T22:23:07.470Z,1.50
2018-08-24T22:25:36.450Z,1.85
2018-08-24T22:28:05.459Z,3.75
2018-08-24T22:30:34.670Z,2.45
2018-08-24T22:33:03.911Z,2.10
2018-08-24T22:35:32.943Z,1.82
2018-08-24T22:38:02.337Z,1.50
2018-08-24T22:40:31.324Z,2.27
2018-08-24T22:43:00.590Z,1.72
2018-08-24T22:45:29.894Z,2.05
2018-08-24T22:47:58.821Z,1.70
2018-08-24T22:50:27.898Z,1.90
2018-08-24T22:52:57.255Z,1.62
2018-08-24T22:55:26.275Z,2.77
2018-08-24T22:57:55.263Z,1.85
2018-08-24T23:00:24.620Z,2.25
2018-08-24T23:02:52.436Z,1.47
2018-08-24T23:05:21.578Z,2.08
2018-08-24T23:07:50.998Z,1.45
2018-08-24T23:10:20.830Z,1.77
2018-08-24T23:12:50.113Z,1.52
2018-08-24T23:15:19.550Z,1.92
2018-08-24T23:17:48.496Z,1.77
2018-08-24T23:20:17.379Z,1.90
2018-08-24T23:22:46.850Z,1.90
2018-08-24T23:25:15.887Z,2.22
2018-08-24T23:27:44.978Z,1.80
2018-08-24T23:30:14.048Z,10.30
2018-08-24T23:32:43.763Z,6.05
2018-08-24T23:35:12.811Z,2.65
2018-08-24T23:37:42.431Z,2.35
2018-08-24T23:40:11.712Z,2.30
2018-08-24T23:42:40.712Z,2.47
2018-08-24T23:45:10.343Z,2.45
2018-08-24T23:47:39.363Z,2.62
2018-08-24T23:50:08.823Z,2.17
2018-08-24T23:52:38.240Z,2.12
2018-08-24T23:55:07.391Z,2.80
2018-08-24T23:57:36.401Z,2.52
